TimeEDT,TemperatureF,Dew PointF,Humidity,Sea Level PressureIn,VisibilityMPH,Wind Direction,Wind SpeedMPH,Gust SpeedMPH,PrecipitationIn,Events,Conditions,WindDirDegrees,DateUTC
12:56 AM,63.0,59.9,90,29.76,10.0,SE,9.2,-,N/A,,Overcast,140,2013-06-11 04:56:00
1:14 AM,62.6,60.8,94,29.76,10.0,SSE,8.1,-,N/A,,Overcast,150,2013-06-11 05:14:00
1:56 AM,61.9,59.9,93,29.75,10.0,South,6.9,-,0.00,Rain,Light Rain,170,2013-06-11 05:56:00
2:19 AM,62.6,60.8,94,29.75,7.0,SE,5.8,-,0.01,Rain,Light Rain,130,2013-06-11 06:19:00
2:56 AM,61.9,59.9,93,29.74,10.0,SE,4.6,-,0.03,Rain,Light Rain,130,2013-06-11 06:56:00
3:23 AM,62.6,60.8,94,29.73,10.0,ESE,3.5,-,0.01,Rain,Light Rain,120,2013-06-11 07:23:00
3:56 AM,61.9,61.0,97,29.72,10.0,South,5.8,-,0.01,Rain,Light Rain,170,2013-06-11 07:56:00
4:56 AM,63.0,61.0,93,29.71,10.0,South,4.6,-,0.00,,Overcast,190,2013-06-11 08:56:00
5:05 AM,62.6,60.8,94,29.72,10.0,South,4.6,-,N/A,,Overcast,190,2013-06-11 09:05:00
5:41 AM,62.6,60.8,94,29.72,10.0,SSW,4.6,-,N/A,,Mostly Cloudy,200,2013-06-11 09:41:00
5:56 AM,61.9,59.9,93,29.71,10.0,SSW,4.6,-,N/A,,Scattered Clouds,200,2013-06-11 09:56:00
6:15 AM,62.6,60.8,94,29.72,10.0,SSW,4.6,-,N/A,,Mostly Cloudy,200,2013-06-11 10:15:00
6:56 AM,63.9,61.0,90,29.71,10.0,South,4.6,-,N/A,,Mostly Cloudy,170,2013-06-11 10:56:00
7:56 AM,64.9,61.0,87,29.70,10.0,South,6.9,-,N/A,,Overcast,180,2013-06-11 11:56:00
8:03 AM,64.4,60.8,88,29.70,10.0,South,8.1,-,N/A,,Mostly Cloudy,170,2013-06-11 12:03:00
8:56 AM,64.9,61.9,90,29.70,5.0,SW,5.8,-,0.00,Rain,Light Rain,220,2013-06-11 12:56:00
9:56 AM,64.9,63.0,93,29.68,3.0,SW,6.9,-,0.06,Rain,Light Rain,220,2013-06-11 13:56:00
10:56 AM,64.9,63.0,93,29.68,3.0,West,8.1,-,0.06,Rain,Rain,280,2013-06-11 14:56:00
11:56 AM,63.0,61.0,93,29.70,6.0,WNW,8.1,-,0.05,Rain,Light Rain,290,2013-06-11 15:56:00
12:42 PM,62.6,60.8,94,29.71,10.0,WNW,9.2,-,0.01,,Overcast,290,2013-06-11 16:42:00
12:56 PM,63.0,61.0,93,29.71,10.0,WNW,10.4,-,0.01,,Overcast,290,2013-06-11 16:56:00
1:56 PM,63.0,59.9,90,29.71,10.0,WNW,8.1,-,0.00,,Overcast,290,2013-06-11 17:56:00
2:56 PM,63.9,59.9,87,29.72,10.0,WNW,11.5,17.3,N/A,,Overcast,300,2013-06-11 18:56:00
3:56 PM,63.0,61.0,93,29.73,3.0,WNW,16.1,23.0,0.01,Rain,Light Rain Showers,300,2013-06-11 19:56:00
4:56 PM,63.9,59.9,87,29.73,10.0,NW,13.8,23.0,0.02,,Overcast,310,2013-06-11 20:56:00
5:56 PM,61.9,59.0,90,29.74,10.0,NW,15.0,24.2,0.00,Rain,Light Rain Showers,310,2013-06-11 21:56:00
6:56 PM,63.0,57.9,84,29.75,10.0,NW,12.7,-,0.00,,Overcast,310,2013-06-11 22:56:00
7:56 PM,61.9,57.9,87,29.76,10.0,NW,8.1,-,N/A,,Overcast,310,2013-06-11 23:56:00
8:56 PM,61.9,56.8,84,29.77,10.0,NW,9.2,-,N/A,,Overcast,310,2013-06-12 00:56:00
9:56 PM,61.0,57.9,90,29.80,10.0,NW,8.1,-,N/A,,Overcast,310,2013-06-12 01:56:00
10:28 PM,62.6,57.2,82,29.81,10.0,NW,9.2,-,N/A,,Overcast,320,2013-06-12 02:28:00
10:56 PM,61.0,55.9,83,29.81,10.0,NW,10.4,-,N/A,,Overcast,320,2013-06-12 02:56:00
11:56 PM,59.9,54.0,81,29.82,10.0,NW,12.7,-,N/A,,Overcast,320,2013-06-12 03:56:00